sensor_id;sensor_type;location;lat;lon;timestamp;P1;durP1;ratioP1;P2;durP2;ratioP2
60896;SDS011;46749;32.932;-117.130;2023-05-21T00:01:55;1.20;;;0.60;;
60896;SDS011;46749;32.932;-117.130;2023-05-21T00:04:24;2.67;;;0.70;;
60896;SDS011;46749;32.932;-117.130;2023-05-21T00:06:50;4.18;;;1.08;;
60896;SDS011;46749;32.932;-117.130;2023-05-21T00:09:16;1.65;;;0.57;;
60896;SDS011;46749;32.932;-117.130;2023-05-21T00:11:42;2.20;;;1.05;;
60896;SDS011;46749;32.932;-117.130;2023-05-21T00:14:08;2.00;;;0.80;;
60896;SDS011;46749;32.932;-117.130;2023-05-21T00:16:35;2.83;;;0.95;;
60896;SDS011;46749;32.932;-117.130;2023-05-21T00:19:01;1.88;;;0.82;;
60896;SDS011;46749;32.932;-117.130;2023-05-21T00:21:27;2.05;;;0.82;;
60896;SDS011;46749;32.932;-117.130;2023-05-21T00:23:53;1.70;;;0.68;;
60896;SDS011;46749;32.932;-117.130;2023-05-21T00:26:20;2.70;;;0.88;;
60896;SDS011;46749;32.932;-117.130;2023-05-21T00:28:48;2.08;;;0.70;;
60896;SDS011;46749;32.932;-117.130;2023-05-21T00:31:14;2.85;;;0.80;;
60896;SDS011;46749;32.932;-117.130;2023-05-21T00:33:41;1.95;;;0.80;;
60896;SDS011;46749;32.932;-117.130;2023-05-21T00:36:07;1.17;;;0.60;;
60896;SDS011;46749;32.932;-117.130;2023-05-21T00:38:34;2.05;;;0.90;;
60896;SDS011;46749;32.932;-117.130;2023-05-21T00:41:02;1.40;;;0.70;;
60896;SDS011;46749;32.932;-117.130;2023-05-21T00:43:28;2.35;;;0.70;;
60896;SDS011;46749;32.932;-117.130;2023-05-21T00:45:54;1.02;;;0.60;;
60896;SDS011;46749;32.932;-117.130;2023-05-21T00:48:23;1.95;;;0.80;;
60896;SDS011;46749;32.932;-117.130;2023-05-21T00:50:50;1.55;;;0.73;;
60896;SDS011;46749;32.932;-117.130;2023-05-21T00:53:17;3.17;;;1.00;;
60896;SDS011;46749;32.932;-117.130;2023-05-21T00:55:44;1.30;;;0.68;;
60896;SDS011;46749;32.932;-117.130;2023-05-21T00:58:11;1.80;;;0.75;;
60896;SDS011;46749;32.932;-117.130;2023-05-21T01:00:37;1.90;;;0.90;;
60896;SDS011;46749;32.932;-117.130;2023-05-21T01:03:04;2.08;;;0.70;;
60896;SDS011;46749;32.932;-117.130;2023-05-21T01:05:31;1.77;;;1.00;;
60896;SDS011;46749;32.932;-117.130;2023-05-21T01:07:57;1.33;;;0.70;;
60896;SDS011;46749;32.932;-117.130;2023-05-21T01:10:24;1.27;;;0.80;;
60896;SDS011;46749;32.932;-117.130;2023-05-21T01:12:51;2.00;;;0.85;;
60896;SDS011;46749;32.932;-117.130;2023-05-21T01:15:19;1.60;;;0.80;;
60896;SDS011;46749;32.932;-117.130;2023-05-21T01:17:45;1.23;;;0.63;;
60896;SDS011;46749;32.932;-117.130;2023-05-21T01:20:14;2.03;;;0.70;;
60896;SDS011;46749;32.932;-117.130;2023-05-21T01:22:51;1.10;;;0.73;;
60896;SDS011;46749;32.932;-117.130;2023-05-21T01:25:21;1.95;;;0.90;;
60896;SDS011;46749;32.932;-117.130;2023-05-21T01:27:48;1.25;;;0.90;;
60896;SDS011;46749;32.932;-117.130;2023-05-21T01:30:18;2.10;;;1.00;;
60896;SDS011;46749;32.932;-117.130;2023-05-21T01:35:28;2.10;;;0.90;;
60896;SDS011;46749;32.932;-117.130;2023-05-21T01:40:50;1.92;;;0.90;;
60896;SDS011;46749;32.932;-117.130;2023-05-21T01:43:28;3.30;;;0.65;;
60896;SDS011;46749;32.932;-117.130;2023-05-21T01:45:59;2.13;;;0.80;;
60896;SDS011;46749;32.932;-117.130;2023-05-21T01:48:27;1.75;;;0.57;;
60896;SDS011;46749;32.932;-117.130;2023-05-21T01:50:57;1.52;;;0.90;;
60896;SDS011;46749;32.932;-117.130;2023-05-21T01:53:27;1.77;;;0.80;;
60896;SDS011;46749;32.932;-117.130;2023-05-21T01:55:53;2.03;;;0.75;;
60896;SDS011;46749;32.932;-117.130;2023-05-21T01:58:20;2.33;;;0.70;;
60896;SDS011;46749;32.932;-117.130;2023-05-21T02:00:47;1.45;;;0.80;;
60896;SDS011;46749;32.932;-117.130;2023-05-21T02:03:15;2.45;;;0.80;;
60896;SDS011;46749;32.932;-117.130;2023-05-21T02:05:44;1.73;;;0.82;;
60896;SDS011;46749;32.932;-117.130;2023-05-21T02:08:11;1.48;;;0.70;;
60896;SDS011;46749;32.932;-117.130;2023-05-21T02:10:39;2.67;;;0.88;;
60896;SDS011;46749;32.932;-117.130;2023-05-21T02:13:05;0.95;;;0.80;;
60896;SDS011;46749;32.932;-117.130;2023-05-21T02:15:31;1.67;;;0.68;;
60896;SDS011;46749;32.932;-117.130;2023-05-21T02:18:00;1.50;;;0.70;;
60896;SDS011;46749;32.932;-117.130;2023-05-21T02:20:29;2.92;;;1.20;;
60896;SDS011;46749;32.932;-117.130;2023-05-21T02:22:55;2.60;;;0.70;;
60896;SDS011;46749;32.932;-117.130;2023-05-21T02:25:22;1.42;;;0.60;;
60896;SDS011;46749;32.932;-117.130;2023-05-21T02:27:48;1.08;;;0.70;;
60896;SDS011;46749;32.932;-117.130;2023-05-21T02:30:17;0.80;;;0.65;;
60896;SDS011;46749;32.932;-117.130;2023-05-21T02:32:44;1.98;;;0.82;;
60896;SDS011;46749;32.932;-117.130;2023-05-21T02:35:12;1.08;;;0.70;;
60896;SDS011;46749;32.932;-117.130;2023-05-21T02:37:39;1.40;;;0.70;;
60896;SDS011;46749;32.932;-117.130;2023-05-21T02:40:06;2.55;;;0.95;;
60896;SDS011;46749;32.932;-117.130;2023-05-21T02:42:34;0.90;;;0.70;;
60896;SDS011;46749;32.932;-117.130;2023-05-21T02:45:03;1.25;;;0.60;;
60896;SDS011;46749;32.932;-117.130;2023-05-21T02:47:31;1.88;;;0.80;;
60896;SDS011;46749;32.932;-117.130;2023-05-21T02:49:58;1.83;;;0.80;;
60896;SDS011;46749;32.932;-117.130;2023-05-21T02:52:26;2.25;;;0.70;;
60896;SDS011;46749;32.932;-117.130;2023-05-21T02:54:52;2.78;;;0.70;;
60896;SDS011;46749;32.932;-117.130;2023-05-21T02:57:18;2.10;;;0.50;;
60896;SDS011;46749;32.932;-117.130;2023-05-21T02:59:45;2.80;;;0.77;;
60896;SDS011;46749;32.932;-117.130;2023-05-21T03:02:11;3.42;;;0.80;;
60896;SDS011;46749;32.932;-117.130;2023-05-21T03:04:37;1.45;;;0.70;;
60896;SDS011;46749;32.932;-117.130;2023-05-21T03:07:10;2.25;;;0.70;;
60896;SDS011;46749;32.932;-117.130;2023-05-21T03:09:38;2.60;;;0.80;;
60896;SDS011;46749;32.932;-117.130;2023-05-21T03:12:06;1.67;;;0.80;;
60896;SDS011;46749;32.932;-117.130;2023-05-21T03:14:33;2.10;;;0.68;;
60896;SDS011;46749;32.932;-117.130;2023-05-21T03:16:59;1.52;;;0.82;;
60896;SDS011;46749;32.932;-117.130;2023-05-21T03:19:33;2.13;;;0.80;;
60896;SDS011;46749;32.932;-117.130;2023-05-21T03:22:03;1.35;;;0.60;;
60896;SDS011;46749;32.932;-117.130;2023-05-21T03:24:29;0.82;;;0.50;;
60896;SDS011;46749;32.932;-117.130;2023-05-21T03:26:57;1.52;;;0.70;;
60896;SDS011;46749;32.932;-117.130;2023-05-21T03:29:25;1.95;;;0.60;;
60896;SDS011;46749;32.932;-117.130;2023-05-21T03:31:53;1.65;;;0.60;;
60896;SDS011;46749;32.932;-117.130;2023-05-21T03:34:19;2.35;;;0.80;;
60896;SDS011;46749;32.932;-117.130;2023-05-21T03:36:46;1.50;;;0.75;;
60896;SDS011;46749;32.932;-117.130;2023-05-21T03:39:12;2.25;;;0.75;;
60896;SDS011;46749;32.932;-117.130;2023-05-21T03:41:39;1.88;;;0.70;;
60896;SDS011;46749;32.932;-117.130;2023-05-21T03:44:05;0.93;;;0.50;;
60896;SDS011;46749;32.932;-117.130;2023-05-21T03:46:31;2.00;;;0.50;;
60896;SDS011;46749;32.932;-117.130;2023-05-21T03:48:57;1.20;;;0.70;;
60896;SDS011;46749;32.932;-117.130;2023-05-21T03:51:24;2.08;;;0.70;;
60896;SDS011;46749;32.932;-117.130;2023-05-21T03:53:50;3.63;;;0.60;;
60896;SDS011;46749;32.932;-117.130;2023-05-21T03:56:17;0.93;;;0.77;;
60896;SDS011;46749;32.932;-117.130;2023-05-21T03:58:43;1.15;;;0.70;;
60896;SDS011;46749;32.932;-117.130;2023-05-21T04:01:09;1.13;;;0.60;;
60896;SDS011;46749;32.932;-117.130;2023-05-21T04:03:36;1.88;;;0.70;;
60896;SDS011;46749;32.932;-117.130;2023-05-21T04:06:02;1.67;;;0.65;;
60896;SDS011;46749;32.932;-117.130;2023-05-21T04:08:29;1.13;;;0.60;;
60896;SDS011;46749;32.932;-117.130;2023-05-21T04:10:55;1.10;;;0.63;;
60896;SDS011;46749;32.932;-117.130;2023-05-21T04:13:22;1.58;;;0.70;;
60896;SDS011;46749;32.932;-117.130;2023-05-21T04:15:48;2.67;;;0.60;;
60896;SDS011;46749;32.932;-117.130;2023-05-21T04:18:14;1.73;;;0.75;;
60896;SDS011;46749;32.932;-117.130;2023-05-21T04:20:41;1.23;;;0.50;;
60896;SDS011;46749;32.932;-117.130;2023-05-21T04:23:07;0.95;;;0.63;;
60896;SDS011;46749;32.932;-117.130;2023-05-21T04:25:34;1.65;;;0.60;;
60896;SDS011;46749;32.932;-117.130;2023-05-21T04:28:00;1.48;;;0.60;;
60896;SDS011;46749;32.932;-117.130;2023-05-21T04:30:26;0.70;;;0.55;;
60896;SDS011;46749;32.932;-117.130;2023-05-21T04:32:53;1.15;;;0.70;;
60896;SDS011;46749;32.932;-117.130;2023-05-21T04:35:19;2.00;;;0.70;;
60896;SDS011;46749;32.932;-117.130;2023-05-21T04:37:45;1.08;;;0.50;;
60896;SDS011;46749;32.932;-117.130;2023-05-21T04:40:12;1.52;;;0.60;;
60896;SDS011;46749;32.932;-117.130;2023-05-21T04:42:43;1.80;;;0.50;;
60896;SDS011;46749;32.932;-117.130;2023-05-21T04:45:15;1.45;;;0.50;;
60896;SDS011;46749;32.932;-117.130;2023-05-21T04:47:44;0.98;;;0.60;;
60896;SDS011;46749;32.932;-117.130;2023-05-21T04:50:10;1.40;;;0.50;;
60896;SDS011;46749;32.932;-117.130;2023-05-21T04:52:37;1.98;;;0.50;;
60896;SDS011;46749;32.932;-117.130;2023-05-21T04:55:05;1.08;;;0.57;;
60896;SDS011;46749;32.932;-117.130;2023-05-21T04:57:32;0.73;;;0.60;;
60896;SDS011;46749;32.932;-117.130;2023-05-21T04:59:58;1.38;;;0.68;;
60896;SDS011;46749;32.932;-117.130;2023-05-21T05:02:24;1.80;;;0.50;;
60896;SDS011;46749;32.932;-117.130;2023-05-21T05:04:50;1.95;;;0.70;;
60896;SDS011;46749;32.932;-117.130;2023-05-21T05:07:16;2.28;;;0.63;;
60896;SDS011;46749;32.932;-117.130;2023-05-21T05:09:43;1.67;;;0.77;;
60896;SDS011;46749;32.932;-117.130;2023-05-21T05:12:09;0.85;;;0.50;;
60896;SDS011;46749;32.932;-117.130;2023-05-21T05:14:35;1.08;;;0.60;;
60896;SDS011;46749;32.932;-117.130;2023-05-21T05:17:01;0.80;;;0.40;;
60896;SDS011;46749;32.932;-117.130;2023-05-21T05:19:27;0.70;;;0.40;;
60896;SDS011;46749;32.932;-117.130;2023-05-21T05:21:53;2.13;;;0.60;;
60896;SDS011;46749;32.932;-117.130;2023-05-21T05:24:20;1.45;;;0.50;;
60896;SDS011;46749;32.932;-117.130;2023-05-21T05:26:46;1.38;;;0.63;;
60896;SDS011;46749;32.932;-117.130;2023-05-21T05:29:12;1.08;;;0.57;;
60896;SDS011;46749;32.932;-117.130;2023-05-21T05:31:38;0.82;;;0.40;;
60896;SDS011;46749;32.932;-117.130;2023-05-21T05:34:05;2.78;;;0.70;;
60896;SDS011;46749;32.932;-117.130;2023-05-21T05:36:31;1.55;;;0.55;;
60896;SDS011;46749;32.932;-117.130;2023-05-21T05:38:57;0.75;;;0.50;;
60896;SDS011;46749;32.932;-117.130;2023-05-21T05:41:24;1.35;;;0.60;;
60896;SDS011;46749;32.932;-117.130;2023-05-21T05:43:51;1.67;;;1.05;;
60896;SDS011;46749;32.932;-117.130;2023-05-21T05:46:17;1.05;;;0.50;;
60896;SDS011;46749;32.932;-117.130;2023-05-21T05:48:43;0.95;;;0.52;;
60896;SDS011;46749;32.932;-117.130;2023-05-21T05:51:09;0.98;;;0.60;;
60896;SDS011;46749;32.932;-117.130;2023-05-21T05:53:36;0.70;;;0.40;;
60896;SDS011;46749;32.932;-117.130;2023-05-21T05:56:02;1.35;;;0.60;;
60896;SDS011;46749;32.932;-117.130;2023-05-21T05:58:29;1.95;;;0.65;;
60896;SDS011;46749;32.932;-117.130;2023-05-21T06:00:55;1.30;;;0.68;;
60896;SDS011;46749;32.932;-117.130;2023-05-21T06:03:21;1.92;;;0.60;;
60896;SDS011;46749;32.932;-117.130;2023-05-21T06:05:47;1.35;;;0.60;;
60896;SDS011;46749;32.932;-117.130;2023-05-21T06:08:14;1.10;;;0.47;;
60896;SDS011;46749;32.932;-117.130;2023-05-21T06:10:40;1.58;;;0.60;;
60896;SDS011;46749;32.932;-117.130;2023-05-21T06:13:07;1.08;;;0.60;;
60896;SDS011;46749;32.932;-117.130;2023-05-21T06:15:33;0.63;;;0.45;;
60896;SDS011;46749;32.932;-117.130;2023-05-21T06:17:59;0.57;;;0.40;;
60896;SDS011;46749;32.932;-117.130;2023-05-21T06:20:25;0.80;;;0.40;;
60896;SDS011;46749;32.932;-117.130;2023-05-21T06:22:51;0.73;;;0.47;;
60896;SDS011;46749;32.932;-117.130;2023-05-21T06:25:18;1.13;;;0.50;;
60896;SDS011;46749;32.932;-117.130;2023-05-21T06:27:44;0.93;;;0.50;;
60896;SDS011;46749;32.932;-117.130;2023-05-21T06:30:10;0.88;;;0.40;;
60896;SDS011;46749;32.932;-117.130;2023-05-21T06:32:37;1.50;;;0.50;;
60896;SDS011;46749;32.932;-117.130;2023-05-21T06:35:03;1.38;;;0.50;;
60896;SDS011;46749;32.932;-117.130;2023-05-21T06:37:29;0.75;;;0.40;;
60896;SDS011;46749;32.932;-117.130;2023-05-21T06:39:56;0.52;;;0.40;;
60896;SDS011;46749;32.932;-117.130;2023-05-21T06:42:22;0.77;;;0.50;;
60896;SDS011;46749;32.932;-117.130;2023-05-21T06:44:48;0.52;;;0.50;;
60896;SDS011;46749;32.932;-117.130;2023-05-21T06:47:14;1.17;;;0.40;;
60896;SDS011;46749;32.932;-117.130;2023-05-21T06:49:40;2.03;;;0.60;;
60896;SDS011;46749;32.932;-117.130;2023-05-21T06:52:06;1.17;;;0.57;;
60896;SDS011;46749;32.932;-117.130;2023-05-21T06:54:33;1.67;;;0.40;;
60896;SDS011;46749;32.932;-117.130;2023-05-21T06:56:59;1.10;;;0.50;;
60896;SDS011;46749;32.932;-117.130;2023-05-21T06:59:25;0.90;;;0.60;;
60896;SDS011;46749;32.932;-117.130;2023-05-21T07:01:52;0.65;;;0.50;;
60896;SDS011;46749;32.932;-117.130;2023-05-21T07:04:18;2.05;;;0.57;;
60896;SDS011;46749;32.932;-117.130;2023-05-21T07:06:44;0.93;;;0.60;;
60896;SDS011;46749;32.932;-117.130;2023-05-21T07:09:10;0.85;;;0.60;;
60896;SDS011;46749;32.932;-117.130;2023-05-21T07:11:37;2.05;;;0.70;;
60896;SDS011;46749;32.932;-117.130;2023-05-21T07:14:03;1.48;;;0.68;;
60896;SDS011;46749;32.932;-117.130;2023-05-21T07:16:29;0.88;;;0.50;;
60896;SDS011;46749;32.932;-117.130;2023-05-21T07:18:55;1.75;;;0.50;;
60896;SDS011;46749;32.932;-117.130;2023-05-21T07:21:22;1.25;;;0.60;;
60896;SDS011;46749;32.932;-117.130;2023-05-21T07:23:48;1.58;;;0.60;;
60896;SDS011;46749;32.932;-117.130;2023-05-21T07:26:15;0.77;;;0.55;;
60896;SDS011;46749;32.932;-117.130;2023-05-21T07:28:41;2.40;;;0.60;;
60896;SDS011;46749;32.932;-117.130;2023-05-21T07:31:08;1.10;;;0.57;;
60896;SDS011;46749;32.932;-117.130;2023-05-21T07:33:36;0.63;;;0.40;;
60896;SDS011;46749;32.932;-117.130;2023-05-21T07:36:03;0.88;;;0.60;;
60896;SDS011;46749;32.932;-117.130;2023-05-21T07:38:29;2.00;;;0.68;;
60896;SDS011;46749;32.932;-117.130;2023-05-21T07:40:56;1.65;;;0.60;;
60896;SDS011;46749;32.932;-117.130;2023-05-21T07:43:22;1.60;;;0.60;;
60896;SDS011;46749;32.932;-117.130;2023-05-21T07:45:48;0.60;;;0.45;;
60896;SDS011;46749;32.932;-117.130;2023-05-21T07:48:14;1.63;;;0.82;;
60896;SDS011;46749;32.932;-117.130;2023-05-21T07:50:41;0.98;;;0.60;;
60896;SDS011;46749;32.932;-117.130;2023-05-21T07:53:07;0.63;;;0.50;;
60896;SDS011;46749;32.932;-117.130;2023-05-21T07:55:33;1.60;;;0.50;;
60896;SDS011;46749;32.932;-117.130;2023-05-21T07:57:59;0.95;;;0.60;;
60896;SDS011;46749;32.932;-117.130;2023-05-21T08:00:26;0.60;;;0.57;;
60896;SDS011;46749;32.932;-117.130;2023-05-21T08:02:52;1.58;;;0.50;;
60896;SDS011;46749;32.932;-117.130;2023-05-21T08:05:18;1.02;;;0.40;;
60896;SDS011;46749;32.932;-117.130;2023-05-21T08:07:45;0.85;;;0.50;;
60896;SDS011;46749;32.932;-117.130;2023-05-21T08:10:11;2.20;;;0.60;;
60896;SDS011;46749;32.932;-117.130;2023-05-21T08:12:38;3.00;;;0.68;;
60896;SDS011;46749;32.932;-117.130;2023-05-21T08:15:04;1.08;;;0.60;;
60896;SDS011;46749;32.932;-117.130;2023-05-21T08:17:30;1.17;;;0.40;;
60896;SDS011;46749;32.932;-117.130;2023-05-21T08:19:57;0.88;;;0.60;;
60896;SDS011;46749;32.932;-117.130;2023-05-21T08:22:23;1.52;;;0.50;;
60896;SDS011;46749;32.932;-117.130;2023-05-21T08:24:49;2.08;;;0.60;;
60896;SDS011;46749;32.932;-117.130;2023-05-21T08:27:15;1.45;;;0.63;;
60896;SDS011;46749;32.932;-117.130;2023-05-21T08:29:41;1.33;;;0.60;;
60896;SDS011;46749;32.932;-117.130;2023-05-21T08:32:08;2.50;;;0.70;;
60896;SDS011;46749;32.932;-117.130;2023-05-21T08:34:34;1.52;;;0.70;;
60896;SDS011;46749;32.932;-117.130;2023-05-21T08:37:00;1.00;;;0.60;;
60896;SDS011;46749;32.932;-117.130;2023-05-21T08:39:27;0.60;;;0.40;;
60896;SDS011;46749;32.932;-117.130;2023-05-21T08:41:54;1.38;;;0.40;;
60896;SDS011;46749;32.932;-117.130;2023-05-21T08:44:28;1.23;;;0.50;;
60896;SDS011;46749;32.932;-117.130;2023-05-21T08:46:57;1.15;;;0.50;;
60896;SDS011;46749;32.932;-117.130;2023-05-21T08:49:26;2.05;;;0.70;;
60896;SDS011;46749;32.932;-117.130;2023-05-21T08:51:59;0.57;;;0.40;;
60896;SDS011;46749;32.932;-117.130;2023-05-21T08:54:26;0.82;;;0.35;;
60896;SDS011;46749;32.932;-117.130;2023-05-21T08:56:53;1.60;;;0.50;;
60896;SDS011;46749;32.932;-117.130;2023-05-21T08:59:21;0.88;;;0.60;;
60896;SDS011;46749;32.932;-117.130;2023-05-21T09:01:48;1.13;;;0.50;;
60896;SDS011;46749;32.932;-117.130;2023-05-21T09:04:34;0.98;;;0.50;;
60896;SDS011;46749;32.932;-117.130;2023-05-21T09:07:02;1.27;;;0.50;;
60896;SDS011;46749;32.932;-117.130;2023-05-21T09:09:32;2.17;;;0.70;;
60896;SDS011;46749;32.932;-117.130;2023-05-21T09:12:02;0.73;;;0.43;;
60896;SDS011;46749;32.932;-117.130;2023-05-21T09:14:28;0.60;;;0.60;;
60896;SDS011;46749;32.932;-117.130;2023-05-21T09:16:56;0.50;;;0.40;;
60896;SDS011;46749;32.932;-117.130;2023-05-21T09:19:22;0.80;;;0.55;;
60896;SDS011;46749;32.932;-117.130;2023-05-21T09:21:51;1.27;;;0.43;;
60896;SDS011;46749;32.932;-117.130;2023-05-21T09:24:18;1.65;;;0.50;;
60896;SDS011;46749;32.932;-117.130;2023-05-21T09:26:49;1.17;;;0.50;;
60896;SDS011;46749;32.932;-117.130;2023-05-21T09:29:15;1.17;;;0.32;;
60896;SDS011;46749;32.932;-117.130;2023-05-21T09:31:44;0.93;;;0.65;;
60896;SDS011;46749;32.932;-117.130;2023-05-21T09:34:10;1.25;;;0.50;;
60896;SDS011;46749;32.932;-117.130;2023-05-21T09:36:38;0.40;;;0.40;;
60896;SDS011;46749;32.932;-117.130;2023-05-21T09:39:04;0.82;;;0.40;;
60896;SDS011;46749;32.932;-117.130;2023-05-21T09:41:34;1.17;;;0.60;;
60896;SDS011;46749;32.932;-117.130;2023-05-21T09:44:01;1.05;;;0.50;;
60896;SDS011;46749;32.932;-117.130;2023-05-21T09:46:36;1.10;;;0.50;;
60896;SDS011;46749;32.932;-117.130;2023-05-21T09:49:04;0.73;;;0.50;;
60896;SDS011;46749;32.932;-117.130;2023-05-21T09:51:30;1.23;;;0.70;;
60896;SDS011;46749;32.932;-117.130;2023-05-21T09:53:57;1.00;;;0.40;;
60896;SDS011;46749;32.932;-117.130;2023-05-21T09:56:24;0.65;;;0.40;;
60896;SDS011;46749;32.932;-117.130;2023-05-21T09:58:54;0.70;;;0.52;;
60896;SDS011;46749;32.932;-117.130;2023-05-21T10:01:23;1.42;;;0.45;;
60896;SDS011;46749;32.932;-117.130;2023-05-21T10:03:50;0.80;;;0.50;;
60896;SDS011;46749;32.932;-117.130;2023-05-21T10:06:20;0.90;;;0.60;;
60896;SDS011;46749;32.932;-117.130;2023-05-21T10:08:51;1.13;;;0.50;;
60896;SDS011;46749;32.932;-117.130;2023-05-21T10:11:22;1.30;;;0.50;;
60896;SDS011;46749;32.932;-117.130;2023-05-21T10:13:55;1.73;;;0.60;;
60896;SDS011;46749;32.932;-117.130;2023-05-21T10:16:25;1.13;;;0.52;;
60896;SDS011;46749;32.932;-117.130;2023-05-21T10:18:53;2.05;;;0.50;;
60896;SDS011;46749;32.932;-117.130;2023-05-21T10:21:20;0.75;;;0.50;;
60896;SDS011;46749;32.932;-117.130;2023-05-21T10:23:47;1.50;;;0.50;;
60896;SDS011;46749;32.932;-117.130;2023-05-21T10:26:15;0.73;;;0.40;;
60896;SDS011;46749;32.932;-117.130;2023-05-21T10:28:41;0.88;;;0.40;;
60896;SDS011;46749;32.932;-117.130;2023-05-21T10:31:09;0.60;;;0.38;;
60896;SDS011;46749;32.932;-117.130;2023-05-21T10:33:36;0.57;;;0.40;;
60896;SDS011;46749;32.932;-117.130;2023-05-21T10:36:03;1.98;;;0.40;;
60896;SDS011;46749;32.932;-117.130;2023-05-21T10:38:31;1.02;;;0.40;;
60896;SDS011;46749;32.932;-117.130;2023-05-21T10:40:58;0.80;;;0.50;;
60896;SDS011;46749;32.932;-117.130;2023-05-21T10:46:29;0.50;;;0.30;;
60896;SDS011;46749;32.932;-117.130;2023-05-21T10:49:15;0.68;;;0.40;;
60896;SDS011;46749;32.932;-117.130;2023-05-21T11:00:01;0.22;;;0.22;;
60896;SDS011;46749;32.932;-117.130;2023-05-21T11:02:30;0.43;;;0.30;;
60896;SDS011;46749;32.932;-117.130;2023-05-21T11:04:57;0.40;;;0.30;;
60896;SDS011;46749;32.932;-117.130;2023-05-21T11:07:48;0.52;;;0.30;;
60896;SDS011;46749;32.932;-117.130;2023-05-21T11:13:44;0.40;;;0.30;;
60896;SDS011;46749;32.932;-117.130;2023-05-21T11:21:05;0.45;;;0.40;;
60896;SDS011;46749;32.932;-117.130;2023-05-21T11:26:16;1.20;;;0.30;;
60896;SDS011;46749;32.932;-117.130;2023-05-21T11:28:43;0.50;;;0.40;;
60896;SDS011;46749;32.932;-117.130;2023-05-21T11:31:25;0.95;;;0.30;;
60896;SDS011;46749;32.932;-117.130;2023-05-21T11:36:39;0.30;;;0.30;;
60896;SDS011;46749;32.932;-117.130;2023-05-21T11:39:15;0.50;;;0.30;;
60896;SDS011;46749;32.932;-117.130;2023-05-21T11:42:01;0.95;;;0.30;;
60896;SDS011;46749;32.932;-117.130;2023-05-21T11:44:43;0.20;;;0.20;;
60896;SDS011;46749;32.932;-117.130;2023-05-21T11:47:12;0.20;;;0.20;;
60896;SDS011;46749;32.932;-117.130;2023-05-21T11:49:39;0.63;;;0.35;;
60896;SDS011;46749;32.932;-117.130;2023-05-21T11:52:07;0.50;;;0.20;;
60896;SDS011;46749;32.932;-117.130;2023-05-21T11:54:39;0.40;;;0.20;;
60896;SDS011;46749;32.932;-117.130;2023-05-21T11:57:10;0.52;;;0.20;;
60896;SDS011;46749;32.932;-117.130;2023-05-21T11:59:41;0.35;;;0.20;;
60896;SDS011;46749;32.932;-117.130;2023-05-21T12:02:07;0.20;;;0.20;;
60896;SDS011;46749;32.932;-117.130;2023-05-21T12:04:34;0.98;;;0.40;;
60896;SDS011;46749;32.932;-117.130;2023-05-21T12:07:04;0.80;;;0.20;;
60896;SDS011;46749;32.932;-117.130;2023-05-21T12:12:16;0.40;;;0.30;;
60896;SDS011;46749;32.932;-117.130;2023-05-21T12:14:44;0.80;;;0.20;;
60896;SDS011;46749;32.932;-117.130;2023-05-21T12:17:12;0.28;;;0.20;;
60896;SDS011;46749;32.932;-117.130;2023-05-21T12:19:41;0.43;;;0.20;;
60896;SDS011;46749;32.932;-117.130;2023-05-21T12:22:08;0.30;;;0.20;;
60896;SDS011;46749;32.932;-117.130;2023-05-21T12:24:35;1.33;;;0.20;;
60896;SDS011;46749;32.932;-117.130;2023-05-21T12:27:02;0.20;;;0.20;;
60896;SDS011;46749;32.932;-117.130;2023-05-21T12:29:33;0.50;;;0.22;;
60896;SDS011;46749;32.932;-117.130;2023-05-21T12:32:02;0.10;;;0.10;;
60896;SDS011;46749;32.932;-117.130;2023-05-21T12:37:03;0.45;;;0.20;;
60896;SDS011;46749;32.932;-117.130;2023-05-21T12:39:52;0.28;;;0.20;;
60896;SDS011;46749;32.932;-117.130;2023-05-21T12:42:24;0.30;;;0.28;;
60896;SDS011;46749;32.932;-117.130;2023-05-21T12:44:52;0.35;;;0.20;;
60896;SDS011;46749;32.932;-117.130;2023-05-21T12:47:21;0.20;;;0.20;;
60896;SDS011;46749;32.932;-117.130;2023-05-21T12:49:49;0.10;;;0.10;;
60896;SDS011;46749;32.932;-117.130;2023-05-21T12:52:19;0.65;;;0.10;;
60896;SDS011;46749;32.932;-117.130;2023-05-21T12:54:48;0.30;;;0.30;;
60896;SDS011;46749;32.932;-117.130;2023-05-21T12:57:16;0.10;;;0.10;;
60896;SDS011;46749;32.932;-117.130;2023-05-21T12:59:47;0.70;;;0.20;;
60896;SDS011;46749;32.932;-117.130;2023-05-21T13:02:17;0.17;;;0.17;;
60896;SDS011;46749;32.932;-117.130;2023-05-21T13:04:45;0.20;;;0.20;;
60896;SDS011;46749;32.932;-117.130;2023-05-21T13:07:16;0.20;;;0.20;;
60896;SDS011;46749;32.932;-117.130;2023-05-21T13:09:43;0.20;;;0.20;;
60896;SDS011;46749;32.932;-117.130;2023-05-21T13:12:10;0.20;;;0.17;;
60896;SDS011;46749;32.932;-117.130;2023-05-21T13:14:36;0.38;;;0.20;;
60896;SDS011;46749;32.932;-117.130;2023-05-21T13:17:03;0.20;;;0.20;;
60896;SDS011;46749;32.932;-117.130;2023-05-21T13:19:29;0.22;;;0.20;;
60896;SDS011;46749;32.932;-117.130;2023-05-21T13:21:55;0.20;;;0.20;;
60896;SDS011;46749;32.932;-117.130;2023-05-21T13:24:21;0.17;;;0.10;;
60896;SDS011;46749;32.932;-117.130;2023-05-21T13:26:47;0.20;;;0.20;;
60896;SDS011;46749;32.932;-117.130;2023-05-21T13:29:14;0.28;;;0.20;;
60896;SDS011;46749;32.932;-117.130;2023-05-21T13:31:40;0.20;;;0.20;;
60896;SDS011;46749;32.932;-117.130;2023-05-21T13:34:08;0.15;;;0.15;;
60896;SDS011;46749;32.932;-117.130;2023-05-21T13:36:36;0.57;;;0.20;;
60896;SDS011;46749;32.932;-117.130;2023-05-21T13:39:03;0.10;;;0.10;;
60896;SDS011;46749;32.932;-117.130;2023-05-21T13:41:29;0.10;;;0.10;;
60896;SDS011;46749;32.932;-117.130;2023-05-21T13:43:55;0.43;;;0.22;;
60896;SDS011;46749;32.932;-117.130;2023-05-21T13:46:22;0.65;;;0.20;;
60896;SDS011;46749;32.932;-117.130;2023-05-21T13:48:48;0.30;;;0.10;;
60896;SDS011;46749;32.932;-117.130;2023-05-21T13:51:14;0.20;;;0.20;;
60896;SDS011;46749;32.932;-117.130;2023-05-21T13:53:40;0.20;;;0.20;;
60896;SDS011;46749;32.932;-117.130;2023-05-21T13:56:07;0.20;;;0.20;;
60896;SDS011;46749;32.932;-117.130;2023-05-21T13:58:33;0.20;;;0.20;;
60896;SDS011;46749;32.932;-117.130;2023-05-21T14:01:00;0.20;;;0.20;;
60896;SDS011;46749;32.932;-117.130;2023-05-21T14:03:27;0.20;;;0.20;;
60896;SDS011;46749;32.932;-117.130;2023-05-21T14:05:54;0.10;;;0.10;;
60896;SDS011;46749;32.932;-117.130;2023-05-21T14:08:20;0.10;;;0.10;;
60896;SDS011;46749;32.932;-117.130;2023-05-21T14:10:48;0.10;;;0.10;;
60896;SDS011;46749;32.932;-117.130;2023-05-21T14:13:14;0.10;;;0.10;;
60896;SDS011;46749;32.932;-117.130;2023-05-21T14:15:43;0.20;;;0.20;;
60896;SDS011;46749;32.932;-117.130;2023-05-21T14:18:09;0.20;;;0.20;;
60896;SDS011;46749;32.932;-117.130;2023-05-21T14:20:36;0.20;;;0.10;;
60896;SDS011;46749;32.932;-117.130;2023-05-21T14:23:06;0.40;;;0.22;;
60896;SDS011;46749;32.932;-117.130;2023-05-21T14:25:33;0.20;;;0.20;;
60896;SDS011;46749;32.932;-117.130;2023-05-21T14:28:00;0.30;;;0.20;;
60896;SDS011;46749;32.932;-117.130;2023-05-21T14:30:26;0.20;;;0.20;;
60896;SDS011;46749;32.932;-117.130;2023-05-21T14:32:52;0.30;;;0.20;;
60896;SDS011;46749;32.932;-117.130;2023-05-21T14:35:18;0.30;;;0.20;;
60896;SDS011;46749;32.932;-117.130;2023-05-21T14:37:45;0.10;;;0.10;;
60896;SDS011;46749;32.932;-117.130;2023-05-21T14:40:11;0.20;;;0.20;;
60896;SDS011;46749;32.932;-117.130;2023-05-21T14:42:37;0.20;;;0.20;;
60896;SDS011;46749;32.932;-117.130;2023-05-21T14:45:04;0.40;;;0.20;;
60896;SDS011;46749;32.932;-117.130;2023-05-21T14:47:31;0.20;;;0.20;;